ENAT/ALF METAR and TAF weather

Enter ICAO airport designator
Station Type Date Time Source
ENAT METAR 2019/12/13 13:50 UTC NOAA

ENAT 131350Z 16005KT CAVOK M01/M04 Q0990 RMK WIND 700FT 19016KT


Station Type Date Time Source
ENAT Decoded METAR 2019/12/13 13:50 UTC NOAA

Alta Lufthavn, Norway (ENAT) 69-59N 023-22E 3M
Dec 13, 2019 - 08:50 AM EST / 2019.12.13 1350 UTC
Wind: from the SSE (160 degrees) at 6 MPH (5 KT):0
Visibility: greater than 7 mile(s):0
Temperature: 30 F (-1 C)
Windchill: 23 F (-5 C):1
Dew Point: 24 F (-4 C)
Relative Humidity: 80%
Pressure (altimeter): 29.23 in. Hg (0990 hPa)
ob: ENAT 131350Z 16005KT CAVOK M01/M04 Q0990 RMK WIND 700FT 19016KT
cycle: 14

Station Type Date Time Source
ENAT TAF 2008/11/30 23:00 UTC NOAA

TAF TAF ENAT 302300Z 3023/0102 22005KT 7000 -SN FEW008 BKN020
TEMPO 3023/0102 3000 -SN VV012

Example: see airport list